createdAt,value
2022-08-25T00:00:51.320Z,6.60
2022-08-25T00:03:19.895Z,6.72
2022-08-25T00:05:50.574Z,8.90
2022-08-25T00:08:19.065Z,6.53
2022-08-25T00:10:59.907Z,5.93
2022-08-25T00:13:32.215Z,8.00
2022-08-25T00:16:02.586Z,6.72
2022-08-25T00:18:31.114Z,6.00
2022-08-25T00:20:59.605Z,5.93
2022-08-25T00:23:28.184Z,7.85
2022-08-25T00:25:56.765Z,8.77
2022-08-25T00:28:25.346Z,7.68
2022-08-25T00:30:53.858Z,9.18
2022-08-25T00:33:23.785Z,8.10
2022-08-25T00:35:52.307Z,7.00
2022-08-25T00:38:20.974Z,9.05
2022-08-25T00:41:06.061Z,7.80
2022-08-25T00:43:46.825Z,7.68
2022-08-25T00:46:19.280Z,6.43
2022-08-25T00:48:52.495Z,5.63
2022-08-25T00:51:30.154Z,7.38
2022-08-25T00:53:58.844Z,5.90
2022-08-25T00:56:28.734Z,5.85
2022-08-25T00:58:58.196Z,5.63
2022-08-25T01:01:27.505Z,7.53
2022-08-25T01:03:57.545Z,6.43
2022-08-25T01:06:26.704Z,6.68
2022-08-25T01:08:56.064Z,6.10
2022-08-25T01:11:24.634Z,8.35
2022-08-25T01:13:58.484Z,5.32
2022-08-25T01:16:27.865Z,7.45
2022-08-25T01:19:00.764Z,6.45
2022-08-25T01:21:34.775Z,6.55
2022-08-25T01:24:03.314Z,7.47
2022-08-25T01:26:33.934Z,5.90
2022-08-25T01:29:25.717Z,6.63
2022-08-25T01:31:58.213Z,6.32
2022-08-25T01:34:28.124Z,5.18
2022-08-25T01:36:59.285Z,6.43
2022-08-25T01:39:30.244Z,5.95
2022-08-25T01:42:14.923Z,8.88
2022-08-25T01:44:47.693Z,5.43
2022-08-25T01:47:17.523Z,5.47
2022-08-25T01:49:46.153Z,5.72
2022-08-25T01:52:21.606Z,6.45
2022-08-25T01:54:50.504Z,5.32
2022-08-25T01:57:19.305Z,5.97
2022-08-25T01:59:48.303Z,4.93
2022-08-25T02:02:18.446Z,5.70
2022-08-25T02:04:47.933Z,5.97
2022-08-25T02:07:18.104Z,6.35
2022-08-25T02:09:46.553Z,6.00
2022-08-25T02:12:15.634Z,5.20
2022-08-25T02:14:44.122Z,6.00
2022-08-25T02:17:12.594Z,6.95
2022-08-25T02:19:41.086Z,8.15
2022-08-25T02:22:09.523Z,6.25
2022-08-25T02:24:39.383Z,6.95
2022-08-25T02:27:08.383Z,6.15
2022-08-25T02:29:36.943Z,6.35
2022-08-25T02:32:06.154Z,6.60
2022-08-25T02:34:35.193Z,5.90
2022-08-25T02:37:03.723Z,6.38
2022-08-25T02:39:32.146Z,6.68
2022-08-25T02:42:02.004Z,7.05
2022-08-25T02:44:31.484Z,6.88
2022-08-25T02:47:00.106Z,8.40
2022-08-25T02:49:28.564Z,5.95
2022-08-25T02:51:58.954Z,7.78
2022-08-25T02:54:27.674Z,5.40
2022-08-25T02:56:56.174Z,8.13
2022-08-25T02:59:26.106Z,6.65
2022-08-25T03:01:54.785Z,5.53
2022-08-25T03:04:23.767Z,6.28
2022-08-25T03:06:52.444Z,5.60
2022-08-25T03:09:21.225Z,7.60
2022-08-25T03:11:49.825Z,5.20
2022-08-25T03:14:18.354Z,4.90
2022-08-25T03:16:48.430Z,6.28
2022-08-25T03:19:18.423Z,5.63
2022-08-25T03:21:47.204Z,5.05
2022-08-25T03:24:15.676Z,5.82
2022-08-25T03:26:56.091Z,5.90
2022-08-25T03:29:25.824Z,5.68
2022-08-25T03:31:59.238Z,5.55
2022-08-25T03:34:29.226Z,8.02
2022-08-25T03:36:59.683Z,5.72
2022-08-25T03:39:29.210Z,5.75
2022-08-25T03:41:57.663Z,5.18
2022-08-25T03:44:26.184Z,5.20
2022-08-25T03:46:56.113Z,6.07
2022-08-25T03:49:25.724Z,5.00
2022-08-25T03:51:56.264Z,5.60
2022-08-25T03:54:26.894Z,5.68
2022-08-25T03:56:55.743Z,6.35
2022-08-25T03:59:24.244Z,5.53
2022-08-25T04:01:55.229Z,6.63
2022-08-25T04:04:25.913Z,5.70
2022-08-25T04:06:54.559Z,6.38
2022-08-25T04:09:23.637Z,4.88
2022-08-25T04:11:53.447Z,6.43
2022-08-25T04:14:23.908Z,5.47
2022-08-25T04:16:53.120Z,6.07
2022-08-25T04:19:22.211Z,6.60
2022-08-25T04:21:53.501Z,4.30
2022-08-25T04:24:25.325Z,4.53
2022-08-25T04:26:54.456Z,6.78
2022-08-25T04:29:25.195Z,5.45
2022-08-25T04:31:55.105Z,5.35
2022-08-25T04:34:30.261Z,5.10
2022-08-25T04:37:03.037Z,6.68
2022-08-25T04:39:32.445Z,7.82
2022-08-25T04:42:01.388Z,5.75
2022-08-25T04:44:31.335Z,5.63
2022-08-25T04:47:00.309Z,5.63
2022-08-25T04:49:28.983Z,5.82
2022-08-25T04:51:57.781Z,5.43
2022-08-25T04:54:28.410Z,4.63
2022-08-25T04:56:58.655Z,6.35
2022-08-25T04:59:29.940Z,5.43
2022-08-25T05:02:02.813Z,6.00
2022-08-25T05:04:31.928Z,5.15
2022-08-25T05:07:00.765Z,5.57
2022-08-25T05:09:32.658Z,5.60
2022-08-25T05:12:02.241Z,4.97
2022-08-25T05:14:31.343Z,5.18
2022-08-25T05:17:00.913Z,5.03
2022-08-25T05:19:29.496Z,4.93
2022-08-25T05:21:58.307Z,5.40
2022-08-25T05:24:28.245Z,6.13
2022-08-25T05:26:58.795Z,4.70
2022-08-25T05:29:27.405Z,5.45
2022-08-25T05:31:56.186Z,6.60
2022-08-25T05:34:25.594Z,3.85
2022-08-25T05:36:54.764Z,5.57
2022-08-25T05:39:23.245Z,6.00
2022-08-25T05:41:55.317Z,6.32
2022-08-25T05:44:25.335Z,6.13
2022-08-25T05:46:53.947Z,4.63
2022-08-25T05:49:22.525Z,4.68
2022-08-25T05:51:51.023Z,5.05
2022-08-25T05:54:19.944Z,5.68
2022-08-25T05:56:48.478Z,4.65
2022-08-25T05:59:16.955Z,5.20
2022-08-25T06:02:03.824Z,4.95
2022-08-25T06:04:32.664Z,5.78
2022-08-25T06:07:01.195Z,5.38
2022-08-25T06:09:29.834Z,5.40
2022-08-25T06:11:58.544Z,4.95
2022-08-25T06:14:27.627Z,4.80
2022-08-25T06:16:57.594Z,4.65
2022-08-25T06:19:26.025Z,5.30
2022-08-25T06:21:56.828Z,4.40
2022-08-25T06:24:26.374Z,4.35
2022-08-25T06:26:55.264Z,4.75
2022-08-25T06:29:24.517Z,5.15
2022-08-25T06:31:53.160Z,4.95
2022-08-25T06:34:24.088Z,4.35
2022-08-25T06:36:53.334Z,4.30
2022-08-25T06:39:21.964Z,4.63
2022-08-25T06:41:53.416Z,4.50
2022-08-25T06:44:22.004Z,5.50
2022-08-25T06:46:50.492Z,4.78
2022-08-25T06:49:19.225Z,5.13
2022-08-25T06:51:49.815Z,4.68
2022-08-25T06:54:18.264Z,4.55
2022-08-25T06:56:47.215Z,4.15
2022-08-25T06:59:18.474Z,4.55
2022-08-25T07:01:49.716Z,5.10
2022-08-25T07:04:18.835Z,3.58
2022-08-25T07:06:49.285Z,4.80
2022-08-25T07:09:18.425Z,4.40
2022-08-25T07:11:47.234Z,3.80
2022-08-25T07:14:18.348Z,4.40
2022-08-25T07:16:49.610Z,4.05
2022-08-25T07:19:21.223Z,4.10
2022-08-25T07:21:52.555Z,4.10
2022-08-25T07:24:21.125Z,4.43
2022-08-25T07:26:49.644Z,4.88
2022-08-25T07:29:20.344Z,4.25
2022-08-25T07:32:01.025Z,3.42
2022-08-25T07:34:52.014Z,5.30
2022-08-25T07:37:48.109Z,3.83
2022-08-25T07:40:16.362Z,3.88
2022-08-25T07:42:46.866Z,3.50
2022-08-25T07:45:20.576Z,5.20
2022-08-25T07:47:52.363Z,4.60
2022-08-25T07:50:22.140Z,7.05
2022-08-25T07:52:55.064Z,6.60
2022-08-25T07:55:24.776Z,4.60
2022-08-25T07:57:56.037Z,4.05
2022-08-25T08:00:28.073Z,7.40
2022-08-25T08:02:57.141Z,6.05
2022-08-25T08:05:26.464Z,5.25
2022-08-25T08:07:57.774Z,7.68
2022-08-25T08:11:02.874Z,5.78
2022-08-25T08:13:18.316Z,5.10
2022-08-25T08:15:48.244Z,7.80
2022-08-25T08:18:17.385Z,6.28
2022-08-25T08:20:48.034Z,8.75
2022-08-25T08:23:19.195Z,5.68
2022-08-25T08:25:48.385Z,4.85
2022-08-25T08:28:16.995Z,5.43
2022-08-25T08:30:52.848Z,7.63
2022-08-25T08:33:24.404Z,7.07
2022-08-25T08:35:59.324Z,10.43
2022-08-25T08:38:29.416Z,10.65
2022-08-25T08:41:25.884Z,8.82
2022-08-25T08:46:41.090Z,22.40
2022-08-25T08:49:26.755Z,18.20
2022-08-25T08:52:01.994Z,19.15
2022-08-25T08:54:38.584Z,31.45
2022-08-25T08:57:15.664Z,26.60
2022-08-25T08:59:53.135Z,12.07
2022-08-25T09:02:39.598Z,23.88
2022-08-25T09:05:20.205Z,15.05
2022-08-25T09:07:54.701Z,17.98
2022-08-25T09:10:27.480Z,11.10
2022-08-25T09:13:05.881Z,10.98
2022-08-25T09:16:08.110Z,18.52
2022-08-25T09:18:51.231Z,19.45
2022-08-25T09:21:35.995Z,13.38
2022-08-25T09:24:37.274Z,16.27
2022-08-25T09:27:21.634Z,9.20
2022-08-25T09:30:01.274Z,16.67
2022-08-25T09:32:40.097Z,15.57
2022-08-25T09:35:18.749Z,15.68
2022-08-25T09:38:01.554Z,12.10
2022-08-25T09:40:34.484Z,14.13
2022-08-25T09:43:21.685Z,12.43
2022-08-25T09:45:58.071Z,12.60
2022-08-25T09:48:39.804Z,14.25
2022-08-25T09:51:21.127Z,8.35
2022-08-25T09:53:56.727Z,5.88
2022-08-25T09:59:03.026Z,10.93
2022-08-25T10:01:34.943Z,9.63
2022-08-25T10:04:07.129Z,10.15
2022-08-25T10:06:49.275Z,6.97
2022-08-25T10:09:29.626Z,11.27
2022-08-25T10:12:06.815Z,12.05
2022-08-25T10:14:44.397Z,9.45
2022-08-25T10:17:24.864Z,7.03
2022-08-25T10:20:13.686Z,9.55
2022-08-25T10:22:43.484Z,7.82
2022-08-25T10:25:14.173Z,9.35
2022-08-25T10:27:58.667Z,8.05
2022-08-25T10:30:36.140Z,9.30
2022-08-25T10:33:18.064Z,10.13
2022-08-25T10:35:57.614Z,9.40
2022-08-25T10:38:42.904Z,10.77
2022-08-25T10:41:32.154Z,10.75
2022-08-25T10:44:30.504Z,5.65
2022-08-25T10:47:23.199Z,7.15
2022-08-25T10:49:57.674Z,4.00
2022-08-25T10:52:37.035Z,6.73
2022-08-25T10:55:15.104Z,9.52
2022-08-25T10:57:57.748Z,11.10
2022-08-25T11:00:35.424Z,9.38
2022-08-25T11:03:22.044Z,5.18
2022-08-25T11:06:00.224Z,9.98
2022-08-25T11:08:34.764Z,10.45
2022-08-25T11:11:09.423Z,11.82
2022-08-25T11:13:44.394Z,9.70
2022-08-25T11:16:19.189Z,13.80
2022-08-25T11:18:54.804Z,11.35
2022-08-25T11:21:28.124Z,10.05
2022-08-25T11:24:07.174Z,13.45
2022-08-25T11:26:40.624Z,11.20
2022-08-25T11:29:16.013Z,12.13
2022-08-25T11:31:52.782Z,13.95
2022-08-25T11:34:25.535Z,12.07
2022-08-25T11:37:01.415Z,11.55
2022-08-25T11:39:46.675Z,12.02
2022-08-25T11:42:28.934Z,9.63
2022-08-25T11:45:10.115Z,13.93
2022-08-25T11:48:10.685Z,11.02
2022-08-25T11:50:59.746Z,11.52
2022-08-25T11:53:31.283Z,10.98
2022-08-25T11:56:04.637Z,7.43
2022-08-25T11:58:49.878Z,10.27
2022-08-25T12:01:57.743Z,16.25
2022-08-25T12:04:44.182Z,13.63
2022-08-25T12:07:28.167Z,13.55
2022-08-25T12:10:19.681Z,15.68
2022-08-25T12:13:16.834Z,15.25
2022-08-25T12:16:01.625Z,13.23
2022-08-25T12:18:50.327Z,14.30
2022-08-25T12:21:34.516Z,11.88
2022-08-25T12:24:22.803Z,10.38
2022-08-25T12:26:58.046Z,9.98
2022-08-25T12:29:42.315Z,12.85
2022-08-25T12:32:29.276Z,8.95
2022-08-25T12:35:29.938Z,10.63
2022-08-25T12:38:07.554Z,9.13
2022-08-25T12:40:40.974Z,9.88
2022-08-25T12:43:14.844Z,10.02
2022-08-25T12:45:49.982Z,9.20
2022-08-25T12:49:05.178Z,8.07
2022-08-25T12:51:52.274Z,9.60
2022-08-25T12:54:27.824Z,7.93
2022-08-25T12:57:00.794Z,8.00
2022-08-25T12:59:37.074Z,12.60
2022-08-25T13:02:34.291Z,8.70
2022-08-25T13:05:41.718Z,11.38
2022-08-25T13:08:46.797Z,9.80
2022-08-25T13:11:20.610Z,9.23
2022-08-25T13:13:56.064Z,7.57
2022-08-25T13:16:29.597Z,11.82
2022-08-25T13:19:01.778Z,9.80
2022-08-25T13:21:35.344Z,10.70
2022-08-25T13:24:09.104Z,8.15
2022-08-25T13:26:48.175Z,8.02
2022-08-25T13:29:23.794Z,9.10
2022-08-25T13:31:57.859Z,8.85
2022-08-25T13:34:34.533Z,9.98
2022-08-25T13:37:26.308Z,10.25
2022-08-25T13:40:11.156Z,10.45
2022-08-25T13:42:42.802Z,8.30
2022-08-25T13:45:18.245Z,8.20
2022-08-25T13:47:48.194Z,9.80
2022-08-25T13:50:34.729Z,8.32
2022-08-25T13:53:06.274Z,6.80
2022-08-25T13:55:51.252Z,8.50
2022-08-25T13:58:24.791Z,8.00
2022-08-25T14:01:22.655Z,7.78
2022-08-25T14:04:20.194Z,9.50
2022-08-25T14:06:50.405Z,11.25
2022-08-25T14:09:27.871Z,7.40
2022-08-25T14:11:59.204Z,7.68
2022-08-25T14:14:35.384Z,9.48
2022-08-25T14:17:22.335Z,9.65
2022-08-25T14:19:58.757Z,10.88
2022-08-25T14:22:27.735Z,7.05
2022-08-25T14:25:00.024Z,6.63
2022-08-25T14:27:28.524Z,8.30
2022-08-25T14:29:57.084Z,7.18
2022-08-25T14:32:27.394Z,5.53
2022-08-25T14:34:55.964Z,7.68
2022-08-25T14:37:25.621Z,5.78
2022-08-25T14:39:54.893Z,6.93
2022-08-25T14:42:25.399Z,6.68
2022-08-25T14:44:54.794Z,7.07
2022-08-25T14:47:24.925Z,7.57
2022-08-25T14:49:54.897Z,6.05
2022-08-25T14:52:28.059Z,6.65
2022-08-25T14:54:57.394Z,6.03
2022-08-25T14:57:26.081Z,9.18
2022-08-25T14:59:55.364Z,6.57
2022-08-25T15:02:29.453Z,7.15
2022-08-25T15:05:06.036Z,7.22
2022-08-25T15:07:52.543Z,5.55
2022-08-25T15:10:21.886Z,9.02
2022-08-25T15:12:54.787Z,7.55
2022-08-25T15:15:26.592Z,7.30
2022-08-25T15:17:58.136Z,5.93
2022-08-25T15:20:30.494Z,7.65
2022-08-25T15:22:59.257Z,6.80
2022-08-25T15:25:27.860Z,8.43
2022-08-25T15:27:56.489Z,9.23
2022-08-25T15:30:30.915Z,10.38
2022-08-25T15:33:00.003Z,6.70
2022-08-25T15:35:30.274Z,7.25
2022-08-25T15:37:58.716Z,7.95
2022-08-25T15:40:27.355Z,7.53
2022-08-25T15:42:56.103Z,8.10
2022-08-25T15:45:24.565Z,7.72
2022-08-25T15:47:54.020Z,8.95
2022-08-25T15:50:25.992Z,7.82
2022-08-25T15:52:56.244Z,8.93
2022-08-25T15:55:25.086Z,6.05
2022-08-25T15:57:53.574Z,6.07
2022-08-25T16:00:22.945Z,8.48
2022-08-25T16:02:52.627Z,7.35
2022-08-25T16:05:25.742Z,7.63
2022-08-25T16:07:56.105Z,7.97
2022-08-25T16:10:25.162Z,7.90
2022-08-25T16:12:53.674Z,7.72
2022-08-25T16:15:23.967Z,9.02
2022-08-25T16:17:57.384Z,6.60
2022-08-25T16:20:26.465Z,8.45
2022-08-25T16:22:56.434Z,8.18
2022-08-25T16:25:25.086Z,5.40
2022-08-25T16:27:53.584Z,7.13
2022-08-25T16:30:22.704Z,7.57
2022-08-25T16:32:51.184Z,8.30
2022-08-25T16:35:19.714Z,5.18
2022-08-25T16:37:50.204Z,10.32
2022-08-25T16:40:22.942Z,6.20
2022-08-25T16:42:51.634Z,7.85
2022-08-25T16:45:20.087Z,7.75
2022-08-25T16:47:49.115Z,7.32
2022-08-25T16:50:18.233Z,5.43
2022-08-25T16:53:04.133Z,7.15
2022-08-25T16:55:38.968Z,8.98
2022-08-25T16:58:08.378Z,7.57
2022-08-25T17:00:41.238Z,7.50
2022-08-25T17:03:13.176Z,7.10
2022-08-25T17:05:43.655Z,7.72
2022-08-25T17:08:31.024Z,7.63
2022-08-25T17:11:10.495Z,9.40
2022-08-25T17:13:44.612Z,8.13
2022-08-25T17:16:14.611Z,10.18
2022-08-25T17:18:47.829Z,6.43
2022-08-25T17:21:21.987Z,8.00
2022-08-25T17:23:53.904Z,6.03
2022-08-25T17:26:27.833Z,7.60
2022-08-25T17:28:57.813Z,6.53
2022-08-25T17:31:28.390Z,6.47
2022-08-25T17:33:58.716Z,7.30
2022-08-25T17:36:27.553Z,7.60
2022-08-25T17:38:56.980Z,6.80
2022-08-25T17:41:27.353Z,7.20
2022-08-25T17:43:55.804Z,6.90
2022-08-25T17:46:24.566Z,7.18
2022-08-25T17:48:53.253Z,7.43
2022-08-25T17:51:23.148Z,5.82
2022-08-25T17:53:53.104Z,8.18
2022-08-25T17:56:24.225Z,6.90
2022-08-25T17:58:55.424Z,7.57
2022-08-25T18:01:27.224Z,7.05
2022-08-25T18:03:57.564Z,7.75
2022-08-25T18:06:27.265Z,7.78
2022-08-25T18:08:59.782Z,7.65
2022-08-25T18:11:30.205Z,6.00
2022-08-25T18:14:00.374Z,9.52
2022-08-25T18:16:29.604Z,7.50
2022-08-25T18:18:58.084Z,9.05
2022-08-25T18:21:30.234Z,11.52
2022-08-25T18:23:59.506Z,5.15
2022-08-25T18:26:28.283Z,7.40
2022-08-25T18:28:56.741Z,5.32
2022-08-25T18:31:27.014Z,5.40
2022-08-25T18:33:55.584Z,4.38
2022-08-25T18:36:24.324Z,4.47
2022-08-25T18:39:11.294Z,4.10
2022-08-25T18:41:45.070Z,3.47
2022-08-25T18:44:15.716Z,8.35
2022-08-25T18:46:46.027Z,4.10
2022-08-25T18:49:15.996Z,6.47
2022-08-25T18:51:45.064Z,3.95
2022-08-25T18:54:23.594Z,4.90
2022-08-25T18:56:53.961Z,3.70
2022-08-25T18:59:23.551Z,3.85
2022-08-25T19:01:55.134Z,5.00
2022-08-25T19:04:28.565Z,3.58
2022-08-25T19:07:00.773Z,10.00
2022-08-25T19:09:29.584Z,3.78
2022-08-25T19:11:59.203Z,3.58
2022-08-25T19:14:27.883Z,5.88
2022-08-25T19:16:59.506Z,5.25
2022-08-25T19:19:29.545Z,4.38
2022-08-25T19:21:58.304Z,4.00
2022-08-25T19:24:28.455Z,5.03
2022-08-25T19:26:57.304Z,5.32
2022-08-25T19:29:26.703Z,5.20
2022-08-25T19:32:01.955Z,6.47
2022-08-25T19:34:35.106Z,5.15
2022-08-25T19:37:05.784Z,5.72
2022-08-25T19:39:35.844Z,4.78
2022-08-25T19:42:08.943Z,4.40
2022-08-25T19:44:57.444Z,5.32
2022-08-25T19:47:28.223Z,7.43
2022-08-25T19:49:56.678Z,5.65
2022-08-25T19:52:26.635Z,5.68
2022-08-25T19:54:55.385Z,4.50
2022-08-25T19:57:28.422Z,4.30
2022-08-25T20:00:15.774Z,5.68
2022-08-25T20:02:46.037Z,4.63
2022-08-25T20:05:23.759Z,5.25
2022-08-25T20:07:53.825Z,5.03
2022-08-25T20:10:23.857Z,4.40
2022-08-25T20:12:52.385Z,5.63
2022-08-25T20:15:21.444Z,4.53
2022-08-25T20:17:56.341Z,5.15
2022-08-25T20:20:25.573Z,7.22
2022-08-25T20:23:26.014Z,6.38
2022-08-25T20:25:55.404Z,8.93
2022-08-25T20:28:25.663Z,5.07
2022-08-25T20:30:56.721Z,6.00
2022-08-25T20:33:26.724Z,6.93
2022-08-25T20:35:55.897Z,6.50
2022-08-25T20:38:24.434Z,7.15
2022-08-25T20:40:52.954Z,7.53
2022-08-25T20:43:21.464Z,6.43
2022-08-25T20:45:52.819Z,6.10
2022-08-25T20:48:21.454Z,6.50
2022-08-25T20:50:54.471Z,4.75
2022-08-25T20:53:27.294Z,6.97
2022-08-25T20:55:55.726Z,6.57
2022-08-25T20:58:24.217Z,6.80
2022-08-25T21:00:55.465Z,5.07
2022-08-25T21:03:24.267Z,6.10
2022-08-25T21:05:54.374Z,5.25
2022-08-25T21:08:23.803Z,7.38
2022-08-25T21:10:53.944Z,5.95
2022-08-25T21:13:22.846Z,5.85
2022-08-25T21:15:51.515Z,6.30
2022-08-25T21:18:19.964Z,7.28
2022-08-25T21:20:48.496Z,7.00
2022-08-25T21:23:18.854Z,5.82
2022-08-25T21:25:47.945Z,6.93
2022-08-25T21:28:16.445Z,7.40
2022-08-25T21:30:47.254Z,5.93
2022-08-25T21:33:16.204Z,6.78
2022-08-25T21:35:45.294Z,5.85
2022-08-25T21:38:15.464Z,5.22
2022-08-25T21:40:45.814Z,4.45
2022-08-25T21:43:18.519Z,4.82
2022-08-25T21:45:47.545Z,5.38
2022-08-25T21:48:18.634Z,4.35
2022-08-25T21:50:47.764Z,4.13
2022-08-25T21:53:16.344Z,5.50
2022-08-25T21:55:46.294Z,6.13
2022-08-25T21:58:14.815Z,6.65
2022-08-25T22:00:44.844Z,5.30
2022-08-25T22:03:13.267Z,4.93
2022-08-25T22:05:41.955Z,4.63
2022-08-25T22:08:14.174Z,4.63
2022-08-25T22:10:46.234Z,5.80
2022-08-25T22:13:14.794Z,6.07
2022-08-25T22:15:44.365Z,4.95
2022-08-25T22:18:12.927Z,4.95
2022-08-25T22:20:41.724Z,5.47
2022-08-25T22:23:10.194Z,6.57
2022-08-25T22:25:50.303Z,5.13
2022-08-25T22:28:21.704Z,4.50
2022-08-25T22:30:50.488Z,4.72
2022-08-25T22:33:19.624Z,4.72
2022-08-25T22:35:49.847Z,4.15
2022-08-25T22:38:21.654Z,5.78
2022-08-25T22:40:52.889Z,5.65
2022-08-25T22:43:21.854Z,3.80
2022-08-25T22:45:50.375Z,4.75
2022-08-25T22:48:21.874Z,4.90
2022-08-25T22:50:50.324Z,5.18
2022-08-25T22:53:18.744Z,3.92
2022-08-25T22:55:47.205Z,4.15
2022-08-25T22:58:22.094Z,5.60
2022-08-25T23:00:50.556Z,5.53
2022-08-25T23:03:20.242Z,5.30
2022-08-25T23:05:49.044Z,4.57
2022-08-25T23:08:17.774Z,4.05
2022-08-25T23:11:06.575Z,5.10
2022-08-25T23:13:38.443Z,4.32
2022-08-25T23:16:11.599Z,4.82
2022-08-25T23:18:43.804Z,3.72
2022-08-25T23:21:37.850Z,5.07
2022-08-25T23:24:10.657Z,4.55
2022-08-25T23:26:41.987Z,2.83
2022-08-25T23:29:17.704Z,3.60
2022-08-25T23:31:48.341Z,4.13
2022-08-25T23:34:17.404Z,5.80
2022-08-25T23:36:46.317Z,4.82
2022-08-25T23:39:14.834Z,5.55
2022-08-25T23:41:43.744Z,5.32
2022-08-25T23:44:17.107Z,4.75
2022-08-25T23:46:47.211Z,4.13
2022-08-25T23:49:18.261Z,4.50
2022-08-25T23:51:48.974Z,4.25
2022-08-25T23:54:19.054Z,3.88
2022-08-25T23:56:51.847Z,3.55
2022-08-25T23:59:24.650Z,4.47
